createdAt,value
2022-09-27T00:00:44.897Z,98714.22
2022-09-27T00:03:12.979Z,98716.88
2022-09-27T00:05:41.442Z,98716.06
2022-09-27T00:08:09.195Z,98725.69
2022-09-27T00:10:36.936Z,98723.63
2022-09-27T00:13:04.751Z,98719.97
2022-09-27T00:15:33.898Z,98727.53
2022-09-27T00:18:01.617Z,98728.91
2022-09-27T00:20:29.374Z,98718.25
2022-09-27T00:22:57.068Z,98718.03
2022-09-27T00:25:24.794Z,98714.97
2022-09-27T00:27:52.455Z,98712.28
2022-09-27T00:30:20.106Z,98710.66
2022-09-27T00:32:49.132Z,98713.31
2022-09-27T00:35:17.077Z,98707.75
2022-09-27T00:37:44.788Z,98707.97
2022-09-27T00:40:16.191Z,98708.81
2022-09-27T00:42:46.483Z,98710.44
2022-09-27T00:45:17.784Z,98707.78
2022-09-27T00:47:55.437Z,98710.84
2022-09-27T00:50:27.864Z,98716.41
2022-09-27T00:53:05.054Z,98706.78
2022-09-27T00:55:37.683Z,98705.75
2022-09-27T00:58:06.482Z,98703.91
2022-09-27T01:00:34.653Z,98702.28
2022-09-27T01:03:11.426Z,98706.81
2022-09-27T01:05:39.254Z,98710.09
2022-09-27T01:08:06.946Z,98707.22
2022-09-27T01:10:47.956Z,98712.94
2022-09-27T01:13:22.116Z,98710.88
2022-09-27T01:16:00.585Z,98707.56
2022-09-27T01:18:36.634Z,98713.28
2022-09-27T01:21:34.123Z,98709.81
2022-09-27T01:24:23.887Z,98700.78
2022-09-27T01:27:20.047Z,98710.78
2022-09-27T01:30:02.988Z,98710.38
2022-09-27T01:32:38.994Z,98709.34
2022-09-27T01:35:11.825Z,98701.53
2022-09-27T01:37:46.472Z,98702.13
2022-09-27T01:40:24.592Z,98702.16
2022-09-27T01:42:58.307Z,98702.56
2022-09-27T01:45:31.815Z,98699.47
2022-09-27T01:48:04.339Z,98701.38
2022-09-27T01:50:36.680Z,98695.59
2022-09-27T01:53:09.162Z,98701.75
2022-09-27T01:55:39.787Z,98698.84
2022-09-27T01:58:14.898Z,98697.22
2022-09-27T02:00:46.433Z,98697.81
2022-09-27T02:03:18.787Z,98710.31
2022-09-27T02:05:51.111Z,98702.13
2022-09-27T02:08:23.526Z,98696.16
2022-09-27T02:10:56.246Z,98694.31
2022-09-27T02:13:28.709Z,98692.31
2022-09-27T02:16:04.479Z,98699.47
2022-09-27T02:18:38.482Z,98699.28
2022-09-27T02:21:11.197Z,98701.13
2022-09-27T02:23:44.497Z,98695.19
2022-09-27T02:26:17.521Z,98703.38
2022-09-27T02:28:51.149Z,98701.34
2022-09-27T02:31:19.174Z,98703.16
2022-09-27T02:33:51.630Z,98710.75
2022-09-27T02:36:20.061Z,98712.38
2022-09-27T02:38:47.758Z,98713.19
2022-09-27T02:41:16.525Z,98713.59
2022-09-27T02:43:46.237Z,98726.28
2022-09-27T02:46:35.003Z,98731.03
2022-09-27T02:49:19.825Z,98730.66
2022-09-27T02:51:58.200Z,98733.34
2022-09-27T02:54:35.342Z,98732.88
2022-09-27T02:57:12.403Z,98738.22
2022-09-27T02:59:51.190Z,98739.66
2022-09-27T03:02:25.048Z,98737.81
2022-09-27T03:05:00.443Z,98748.47
2022-09-27T03:07:28.532Z,98747.03
2022-09-27T03:09:57.335Z,98755.59
2022-09-27T03:12:26.904Z,98750.50
2022-09-27T03:14:56.175Z,98758.31
2022-09-27T03:17:23.930Z,98761.19
2022-09-27T03:19:51.816Z,98763.66
2022-09-27T03:22:20.885Z,98767.97
2022-09-27T03:24:49.218Z,98771.66
2022-09-27T03:27:16.966Z,98778.63
2022-09-27T03:29:44.752Z,98780.25
2022-09-27T03:32:12.502Z,98783.16
2022-09-27T03:34:40.207Z,98779.25
2022-09-27T03:37:08.388Z,98778.63
2022-09-27T03:39:37.447Z,98774.78
2022-09-27T03:42:05.418Z,98777.84
2022-09-27T03:44:33.366Z,98778.66
2022-09-27T03:47:01.116Z,98789.50
2022-09-27T03:49:29.130Z,98782.53
2022-09-27T03:51:56.866Z,98791.97
2022-09-27T03:54:25.071Z,98794.03
2022-09-27T03:56:54.197Z,98793.59
2022-09-27T03:59:21.919Z,98798.91
2022-09-27T04:01:49.670Z,98797.06
2022-09-27T04:04:17.431Z,98799.75
2022-09-27T04:06:45.190Z,98808.34
2022-09-27T04:09:12.877Z,98808.94
2022-09-27T04:11:40.625Z,98816.34
2022-09-27T04:14:12.993Z,98814.91
2022-09-27T04:16:41.306Z,98810.19
2022-09-27T04:19:09.690Z,98811.41
2022-09-27T04:21:37.596Z,98816.34
2022-09-27T04:24:06.631Z,98807.34
2022-09-27T04:26:34.380Z,98812.22
2022-09-27T04:29:02.282Z,98811.63
2022-09-27T04:31:31.396Z,98821.88
2022-09-27T04:33:59.711Z,98825.38
2022-09-27T04:36:26.727Z,98832.09
2022-09-27T04:38:54.871Z,98836.63
2022-09-27T04:41:23.412Z,98827.00
2022-09-27T04:43:54.203Z,98836.22
2022-09-27T04:46:26.111Z,98824.94
2022-09-27T04:48:55.194Z,98830.47
2022-09-27T04:51:23.101Z,98840.72
2022-09-27T04:53:50.753Z,98842.38
2022-09-27T04:56:18.432Z,98841.97
2022-09-27T04:58:46.134Z,98842.34
2022-09-27T05:01:14.062Z,98830.28
2022-09-27T05:03:42.031Z,98836.81
2022-09-27T05:06:11.113Z,98840.53
2022-09-27T05:08:38.859Z,98839.72
2022-09-27T05:11:06.705Z,98845.66
2022-09-27T05:13:34.404Z,98851.59
2022-09-27T05:16:05.015Z,98845.25
2022-09-27T05:18:33.435Z,98855.06
2022-09-27T05:21:01.067Z,98860.00
2022-09-27T05:23:30.120Z,98865.53
2022-09-27T05:25:58.050Z,98864.50
2022-09-27T05:28:25.787Z,98871.66
2022-09-27T05:30:53.493Z,98874.31
2022-09-27T05:33:21.317Z,98877.59
2022-09-27T05:35:53.604Z,98880.28
2022-09-27T05:38:21.507Z,98886.00
2022-09-27T05:40:51.484Z,98890.94
2022-09-27T05:43:19.984Z,98891.94
2022-09-27T05:45:48.225Z,98901.34
2022-09-27T05:48:16.008Z,98898.50
2022-09-27T05:50:43.715Z,98896.44
2022-09-27T05:53:13.182Z,98910.75
2022-09-27T05:55:40.868Z,98911.81
2022-09-27T05:58:12.479Z,98911.19
2022-09-27T06:00:40.309Z,98918.34
2022-09-27T06:03:08.224Z,98923.69
2022-09-27T06:05:37.646Z,98927.19
2022-09-27T06:08:07.514Z,98926.34
2022-09-27T06:10:36.260Z,98929.63
2022-09-27T06:13:05.725Z,98927.19
2022-09-27T06:15:36.070Z,98934.56
2022-09-27T06:18:06.245Z,98930.66
2022-09-27T06:20:34.180Z,98928.81
2022-09-27T06:23:07.512Z,98925.13
2022-09-27T06:25:35.528Z,98927.56
2022-09-27T06:28:03.262Z,98934.97
2022-09-27T06:30:31.468Z,98938.84
2022-09-27T06:33:02.003Z,98940.69
2022-09-27T06:35:31.119Z,98948.66
2022-09-27T06:37:59.205Z,98946.44
2022-09-27T06:40:27.319Z,98948.69
2022-09-27T06:42:55.302Z,98961.59
2022-09-27T06:45:23.824Z,98949.28
2022-09-27T06:47:51.634Z,98961.38
2022-09-27T06:50:20.687Z,98954.22
2022-09-27T06:52:49.721Z,98960.75
2022-09-27T06:55:17.827Z,98964.84
2022-09-27T06:58:02.878Z,98972.66
2022-09-27T07:00:30.866Z,98970.41
2022-09-27T07:03:01.030Z,98972.25
2022-09-27T07:05:30.486Z,98975.09
2022-09-27T07:07:59.269Z,98976.13
2022-09-27T07:10:29.491Z,98984.75
2022-09-27T07:12:58.537Z,98994.38
2022-09-27T07:15:26.259Z,98997.22
2022-09-27T07:17:58.113Z,99000.31
2022-09-27T07:20:25.900Z,98997.22
2022-09-27T07:22:55.009Z,99003.38
2022-09-27T07:25:23.042Z,99009.91
2022-09-27T07:27:52.544Z,99003.34
2022-09-27T07:30:21.041Z,99015.44
2022-09-27T07:32:50.431Z,99013.59
2022-09-27T07:35:18.145Z,99019.34
2022-09-27T07:37:45.922Z,99023.84
2022-09-27T07:40:15.149Z,99018.53
2022-09-27T07:42:42.914Z,99019.16
2022-09-27T07:45:12.054Z,99026.38
2022-09-27T07:47:43.010Z,99036.63
2022-09-27T07:50:11.351Z,99038.66
2022-09-27T07:52:43.100Z,99037.25
2022-09-27T07:55:11.937Z,99039.88
2022-09-27T07:57:41.300Z,99039.91
2022-09-27T08:00:11.319Z,99039.66
2022-09-27T08:02:39.074Z,99047.22
2022-09-27T08:05:07.754Z,99051.50
2022-09-27T08:07:35.758Z,99051.66
2022-09-27T08:10:03.492Z,99052.63
2022-09-27T08:12:31.250Z,99059.34
2022-09-27T08:15:01.483Z,99059.28
2022-09-27T08:17:29.956Z,99057.22
2022-09-27T08:19:57.776Z,99062.09
2022-09-27T08:22:25.703Z,99059.56
2022-09-27T08:24:53.427Z,99054.63
2022-09-27T08:27:21.132Z,99055.81
2022-09-27T08:29:49.617Z,99058.69
2022-09-27T08:32:23.088Z,99059.88
2022-09-27T08:34:51.649Z,99060.22
2022-09-27T08:37:19.377Z,99052.81
2022-09-27T08:39:48.210Z,99057.44
2022-09-27T08:42:25.864Z,99062.59
2022-09-27T08:45:03.441Z,99057.31
2022-09-27T08:47:38.201Z,99065.78
2022-09-27T08:50:14.809Z,99080.66
2022-09-27T08:52:46.532Z,99080.91
2022-09-27T08:55:23.474Z,99084.75
2022-09-27T08:57:56.248Z,99079.81
2022-09-27T09:00:24.518Z,99083.09
2022-09-27T09:02:53.616Z,99083.59
2022-09-27T09:05:28.965Z,99087.38
2022-09-27T09:08:18.432Z,99083.53
2022-09-27T09:11:11.845Z,99088.25
2022-09-27T09:14:17.429Z,99093.63
2022-09-27T09:16:53.508Z,99094.94
2022-09-27T09:19:38.190Z,99092.00
2022-09-27T09:22:26.019Z,99088.09
2022-09-27T09:25:06.338Z,99102.97
2022-09-27T09:27:42.787Z,99090.09
2022-09-27T09:30:21.731Z,99092.44
2022-09-27T09:33:02.134Z,99083.53
2022-09-27T09:35:37.648Z,99074.34
2022-09-27T09:38:12.450Z,99067.50
2022-09-27T09:40:44.343Z,99069.06
2022-09-27T09:43:17.714Z,99072.66
2022-09-27T09:45:49.691Z,99070.28
2022-09-27T09:48:25.438Z,99065.78
2022-09-27T09:50:57.520Z,99073.44
2022-09-27T09:53:35.989Z,99085.53
2022-09-27T09:56:08.201Z,99079.09
2022-09-27T09:58:43.984Z,99082.28
2022-09-27T10:01:18.628Z,99077.03
2022-09-27T10:03:46.977Z,99074.63
2022-09-27T10:06:17.657Z,99081.59
2022-09-27T10:08:45.413Z,99082.84
2022-09-27T10:11:20.995Z,99076.06
2022-09-27T10:13:49.136Z,99082.25
2022-09-27T10:16:19.612Z,99073.19
2022-09-27T10:18:50.129Z,99069.31
2022-09-27T10:21:22.750Z,99069.72
2022-09-27T10:24:04.990Z,99069.97
2022-09-27T10:26:33.270Z,99065.50
2022-09-27T10:29:17.509Z,99063.47
2022-09-27T10:31:47.996Z,99065.13
2022-09-27T10:34:22.172Z,99062.06
2022-09-27T10:37:04.883Z,99061.41
2022-09-27T10:39:33.073Z,99060.34
2022-09-27T10:42:00.778Z,99058.72
2022-09-27T10:44:31.903Z,99054.34
2022-09-27T10:47:07.616Z,99051.69
2022-09-27T10:49:39.293Z,99058.00
2022-09-27T10:52:15.720Z,99049.56
2022-09-27T10:54:44.081Z,99059.06
2022-09-27T10:57:20.789Z,99052.91
2022-09-27T10:59:53.988Z,99055.34
2022-09-27T11:02:23.882Z,99051.44
2022-09-27T11:05:14.681Z,99048.97
2022-09-27T11:07:52.701Z,99042.63
2022-09-27T11:10:29.175Z,99052.09
2022-09-27T11:13:14.938Z,99046.97
2022-09-27T11:15:58.898Z,99041.63
2022-09-27T11:18:33.727Z,99051.88
2022-09-27T11:21:13.156Z,99052.88
2022-09-27T11:23:57.710Z,99045.91
2022-09-27T11:26:38.604Z,99044.00
2022-09-27T11:29:20.958Z,99047.56
2022-09-27T11:32:04.782Z,99045.47
2022-09-27T11:34:44.373Z,99040.38
2022-09-27T11:37:19.400Z,99039.41
2022-09-27T11:40:14.036Z,99030.41
2022-09-27T11:43:14.010Z,99029.00
2022-09-27T11:46:14.320Z,99020.84
2022-09-27T11:48:55.682Z,99022.06
2022-09-27T11:51:31.811Z,99021.19
2022-09-27T11:54:13.642Z,99014.75
2022-09-27T11:56:50.774Z,99018.31
2022-09-27T11:59:38.494Z,99015.19
2022-09-27T12:02:23.158Z,99005.66
2022-09-27T12:05:01.762Z,98999.91
2022-09-27T12:07:39.053Z,98986.09
2022-09-27T12:10:13.765Z,98993.38
2022-09-27T12:12:45.600Z,98984.91
2022-09-27T12:15:17.864Z,98990.53
2022-09-27T12:17:47.690Z,98977.84
2022-09-27T12:20:21.557Z,98974.56
2022-09-27T12:22:59.697Z,98979.63
2022-09-27T12:25:32.889Z,98977.38
2022-09-27T12:28:09.623Z,98978.38
2022-09-27T12:30:42.403Z,98986.97
2022-09-27T12:33:18.826Z,98973.28
2022-09-27T12:35:51.418Z,98973.59
2022-09-27T12:38:24.191Z,98977.00
2022-09-27T12:40:54.945Z,98978.56
2022-09-27T12:43:27.837Z,98978.91
2022-09-27T12:46:04.138Z,98981.44
2022-09-27T12:48:42.398Z,98978.25
2022-09-27T12:51:12.944Z,98971.16
2022-09-27T12:53:58.960Z,98985.22
2022-09-27T12:56:45.078Z,98983.88
2022-09-27T12:59:36.815Z,98989.34
2022-09-27T13:02:29.356Z,98986.34
2022-09-27T13:05:18.857Z,98989.22
2022-09-27T13:07:56.941Z,98983.50
2022-09-27T13:10:47.496Z,98995.44
2022-09-27T13:13:20.151Z,98990.56
2022-09-27T13:15:50.609Z,98979.13
2022-09-27T13:18:35.152Z,98993.09
2022-09-27T13:21:06.498Z,98989.16
2022-09-27T13:23:58.969Z,98989.16
2022-09-27T13:26:58.173Z,98981.56
2022-09-27T13:29:33.877Z,98976.25
2022-09-27T13:32:26.196Z,98976.34
2022-09-27T13:34:56.498Z,98971.59
2022-09-27T13:37:50.799Z,98962.91
2022-09-27T13:40:25.719Z,98964.06
2022-09-27T13:43:06.480Z,98968.19
2022-09-27T13:45:42.833Z,98962.47
2022-09-27T13:48:17.853Z,98963.25
2022-09-27T13:50:50.752Z,98971.72
2022-09-27T13:53:29.358Z,98974.28
2022-09-27T13:55:57.374Z,98968.78
2022-09-27T13:58:46.802Z,98963.81
2022-09-27T14:01:21.242Z,98966.09
2022-09-27T14:04:00.667Z,98966.69
2022-09-27T14:06:32.124Z,98962.81
2022-09-27T14:09:03.828Z,98965.50
2022-09-27T14:11:36.188Z,98964.69
2022-09-27T14:14:05.761Z,98968.44
2022-09-27T14:16:36.860Z,98962.88
2022-09-27T14:19:06.358Z,98970.25
2022-09-27T14:21:37.058Z,98969.66
2022-09-27T14:24:26.800Z,98962.66
2022-09-27T14:27:12.654Z,98966.78
2022-09-27T14:29:44.859Z,98966.78
2022-09-27T14:32:14.506Z,98963.69
2022-09-27T14:34:43.689Z,98968.03
2022-09-27T14:37:25.971Z,98971.25
2022-09-27T14:40:00.170Z,98968.31
2022-09-27T14:42:32.451Z,98962.56
2022-09-27T14:45:04.564Z,98967.03
2022-09-27T14:47:33.719Z,98968.25
2022-09-27T14:50:14.596Z,98976.81
2022-09-27T14:52:42.525Z,98972.22
2022-09-27T14:55:17.215Z,98963.31
2022-09-27T14:57:48.005Z,98973.38
2022-09-27T15:00:21.715Z,98968.66
2022-09-27T15:02:50.778Z,98975.84
2022-09-27T15:05:23.122Z,98985.38
2022-09-27T15:07:51.559Z,98984.16
2022-09-27T15:10:22.034Z,98980.50
2022-09-27T15:12:54.487Z,98979.53
2022-09-27T15:15:24.956Z,98982.63
2022-09-27T15:17:53.501Z,98986.75
2022-09-27T15:20:32.143Z,98981.94
2022-09-27T15:23:03.342Z,98988.78
2022-09-27T15:25:34.495Z,99001.75
2022-09-27T15:28:05.316Z,99017.81
2022-09-27T15:30:38.150Z,99012.50
2022-09-27T15:33:08.022Z,99011.72
2022-09-27T15:35:37.662Z,99015.06
2022-09-27T15:38:31.035Z,99020.03
2022-09-27T15:41:02.095Z,99017.63
2022-09-27T15:43:31.894Z,99014.34
2022-09-27T15:46:02.999Z,99007.16
2022-09-27T15:48:32.634Z,98998.34
2022-09-27T15:51:03.085Z,98998.13
2022-09-27T15:53:43.678Z,98997.91
2022-09-27T15:56:15.056Z,99005.50
2022-09-27T15:58:44.811Z,98998.72
2022-09-27T16:01:19.523Z,99012.06
2022-09-27T16:03:47.142Z,99009.03
2022-09-27T16:06:16.228Z,99012.31
2022-09-27T16:08:45.208Z,99012.94
2022-09-27T16:11:17.129Z,99019.69
2022-09-27T16:13:45.439Z,99018.06
2022-09-27T16:16:17.154Z,99019.31
2022-09-27T16:18:45.334Z,99019.22
2022-09-27T16:21:13.608Z,99020.91
2022-09-27T16:23:43.879Z,99023.56
2022-09-27T16:26:11.552Z,99028.31
2022-09-27T16:28:39.412Z,99020.31
2022-09-27T16:31:10.098Z,99025.47
2022-09-27T16:33:37.843Z,99027.53
2022-09-27T16:36:14.393Z,99025.91
2022-09-27T16:38:43.969Z,99036.16
2022-09-27T16:41:11.663Z,99036.59
2022-09-27T16:43:39.302Z,99032.47
2022-09-27T16:46:09.462Z,99039.03
2022-09-27T16:48:37.220Z,99035.16
2022-09-27T16:51:24.615Z,99040.50
2022-09-27T16:53:53.635Z,99041.94
2022-09-27T16:56:21.327Z,99038.88
2022-09-27T16:58:49.034Z,99040.50
2022-09-27T17:01:17.370Z,99045.03
2022-09-27T17:03:45.768Z,99048.31
2022-09-27T17:06:13.371Z,99051.81
2022-09-27T17:08:41.041Z,99057.16
2022-09-27T17:11:14.607Z,99068.19
2022-09-27T17:13:42.705Z,99060.00
2022-09-27T17:16:10.909Z,99062.03
2022-09-27T17:18:39.107Z,99064.91
2022-09-27T17:21:08.888Z,99060.41
2022-09-27T17:23:37.127Z,99061.22
2022-09-27T17:26:07.118Z,99068.19
2022-09-27T17:28:37.417Z,99065.53
2022-09-27T17:31:08.677Z,99063.47
2022-09-27T17:33:41.708Z,99068.19
2022-09-27T17:36:09.495Z,99070.22
2022-09-27T17:38:37.478Z,99073.09
2022-09-27T17:41:07.045Z,99067.56
2022-09-27T17:43:37.648Z,99068.19
2022-09-27T17:46:07.873Z,99066.13
2022-09-27T17:48:53.969Z,99065.50
2022-09-27T17:51:21.838Z,99068.97
2022-09-27T17:53:49.876Z,99068.97
2022-09-27T17:56:18.438Z,99058.91
2022-09-27T17:58:48.937Z,99071.78
2022-09-27T18:01:18.406Z,99067.50
2022-09-27T18:03:47.014Z,99065.63
2022-09-27T18:06:17.213Z,99060.03
2022-09-27T18:08:44.934Z,99061.47
2022-09-27T18:11:14.447Z,99060.28
2022-09-27T18:13:43.868Z,99065.44
2022-09-27T18:16:15.287Z,99060.31
2022-09-27T18:18:44.468Z,99062.59
2022-09-27T18:21:15.400Z,99068.53
2022-09-27T18:23:44.373Z,99068.34
2022-09-27T18:26:12.640Z,99074.25
2022-09-27T18:28:42.302Z,99090.25
2022-09-27T18:31:13.603Z,99083.06
2022-09-27T18:33:41.696Z,99083.66
2022-09-27T18:36:12.991Z,99088.97
2022-09-27T18:38:41.253Z,99093.06
2022-09-27T18:41:10.054Z,99095.09
2022-09-27T18:43:38.938Z,99097.97
2022-09-27T18:46:34.113Z,99089.75
2022-09-27T18:48:59.195Z,99092.00
2022-09-27T18:51:29.008Z,99105.13
2022-09-27T18:53:58.111Z,99103.72
2022-09-27T18:56:26.499Z,99100.22
2022-09-27T18:58:54.531Z,99103.63
2022-09-27T19:01:23.168Z,99100.53
2022-09-27T19:03:51.445Z,99106.50
2022-09-27T19:06:22.163Z,99101.19
2022-09-27T19:08:54.677Z,99101.44
2022-09-27T19:11:22.657Z,99093.03
2022-09-27T19:13:52.542Z,99098.50
2022-09-27T19:16:21.687Z,99107.53
2022-09-27T19:18:49.860Z,99108.56
2022-09-27T19:21:19.671Z,99095.22
2022-09-27T19:23:49.925Z,99088.78
2022-09-27T19:26:19.555Z,99088.97
2022-09-27T19:28:47.868Z,99089.94
2022-09-27T19:31:17.756Z,99086.56
2022-09-27T19:33:45.875Z,99080.78
2022-09-27T19:36:14.906Z,99086.84
2022-09-27T19:38:42.604Z,99089.47
2022-09-27T19:41:13.317Z,99096.53
2022-09-27T19:43:41.310Z,99102.19
2022-09-27T19:46:11.388Z,99103.84
2022-09-27T19:48:39.226Z,99098.94
2022-09-27T19:51:08.062Z,99098.94
2022-09-27T19:53:36.130Z,99098.28
2022-09-27T19:56:06.078Z,99092.97
2022-09-27T19:58:37.000Z,99081.38
2022-09-27T20:01:06.921Z,99085.88
2022-09-27T20:03:36.129Z,99085.63
2022-09-27T20:06:05.253Z,99079.91
2022-09-27T20:08:33.086Z,99073.91
2022-09-27T20:11:06.189Z,99077.59
2022-09-27T20:13:36.566Z,99081.34
2022-09-27T20:16:07.825Z,99075.69
2022-09-27T20:18:39.257Z,99073.22
2022-09-27T20:21:07.482Z,99077.50
2022-09-27T20:23:35.987Z,99074.66
2022-09-27T20:26:05.672Z,99069.91
2022-09-27T20:28:33.254Z,99067.06
2022-09-27T20:31:04.339Z,99059.28
2022-09-27T20:33:49.739Z,99063.03
2022-09-27T20:36:20.234Z,99059.97
2022-09-27T20:38:49.443Z,99043.59
2022-09-27T20:41:19.604Z,99045.81
2022-09-27T20:43:48.229Z,99037.88
2022-09-27T20:46:18.974Z,99042.13
2022-09-27T20:48:47.710Z,99030.72
2022-09-27T20:51:15.586Z,99027.50
2022-09-27T20:53:44.600Z,99026.59
2022-09-27T20:56:18.348Z,99035.19
2022-09-27T20:58:46.415Z,99028.19
2022-09-27T21:01:14.921Z,99013.00
2022-09-27T21:03:43.960Z,99018.34
2022-09-27T21:06:13.132Z,99015.84
2022-09-27T21:08:41.355Z,99006.88
2022-09-27T21:11:12.834Z,99004.59
2022-09-27T21:13:41.829Z,98998.28
2022-09-27T21:16:13.805Z,98988.63
2022-09-27T21:18:42.148Z,98981.03
2022-09-27T21:21:12.472Z,98972.41
2022-09-27T21:23:44.573Z,98969.38
2022-09-27T21:26:15.062Z,98967.09
2022-09-27T21:28:44.004Z,98959.13
2022-09-27T21:31:15.696Z,98964.84
2022-09-27T21:33:49.051Z,98958.28
2022-09-27T21:36:18.177Z,98956.47
2022-09-27T21:38:45.820Z,98964.25
2022-09-27T21:41:15.924Z,98964.69
2022-09-27T21:43:44.973Z,98960.59
2022-09-27T21:46:14.417Z,98962.03
2022-09-27T21:48:43.460Z,98961.63
2022-09-27T21:51:13.195Z,98960.00
2022-09-27T21:53:44.332Z,98964.56
2022-09-27T21:56:13.043Z,98959.03
2022-09-27T21:58:41.779Z,98957.22
2022-09-27T22:01:11.143Z,98956.56
2022-09-27T22:03:39.654Z,98958.97
2022-09-27T22:06:10.643Z,98954.91
2022-09-27T22:08:39.121Z,98942.22
2022-09-27T22:11:08.649Z,98946.72
2022-09-27T22:13:36.913Z,98942.81
2022-09-27T22:16:06.053Z,98936.72
2022-09-27T22:18:37.260Z,98929.16
2022-09-27T22:21:06.724Z,98919.34
2022-09-27T22:23:35.106Z,98918.31
2022-09-27T22:26:15.979Z,98918.72
2022-09-27T22:28:44.487Z,98912.75
2022-09-27T22:31:14.964Z,98908.09
2022-09-27T22:33:43.226Z,98895.44
2022-09-27T22:36:10.876Z,98880.91
2022-09-27T22:38:38.454Z,98886.47
2022-09-27T22:41:06.151Z,98879.72
2022-09-27T22:43:35.258Z,98872.19
2022-09-27T22:46:02.879Z,98875.84
2022-09-27T22:48:31.456Z,98866.63
2022-09-27T22:51:00.719Z,98858.09
2022-09-27T22:53:30.107Z,98858.91
2022-09-27T22:56:03.750Z,98857.44
2022-09-27T22:58:32.599Z,98860.47
2022-09-27T23:01:08.686Z,98853.59
2022-09-27T23:03:37.006Z,98851.94
2022-09-27T23:06:06.969Z,98854.81
2022-09-27T23:08:36.161Z,98834.81
2022-09-27T23:11:05.435Z,98835.00
2022-09-27T23:13:34.488Z,98836.63
2022-09-27T23:16:05.849Z,98837.66
2022-09-27T23:18:34.087Z,98828.06
2022-09-27T23:21:03.625Z,98821.09
2022-09-27T23:23:32.356Z,98812.25
2022-09-27T23:26:01.623Z,98804.50
2022-09-27T23:28:30.352Z,98797.13
2022-09-27T23:30:58.019Z,98796.31
2022-09-27T23:33:27.936Z,98802.47
2022-09-27T23:35:55.551Z,98783.66
2022-09-27T23:38:23.423Z,98779.53
2022-09-27T23:40:51.070Z,98771.56
2022-09-27T23:43:18.666Z,98773.16
2022-09-27T23:45:46.315Z,98752.16
2022-09-27T23:48:13.985Z,98756.41
2022-09-27T23:50:45.011Z,98749.88
2022-09-27T23:53:12.641Z,98742.09
2022-09-27T23:55:40.238Z,98746.19
2022-09-27T23:58:07.941Z,98740.84
